Time;durP1;ratioP1;P1;durP2;ratioP2;P2;SDS_P1;SDS_P2;PMS_P1;PMS_P2;Temp;Humidity;BMP_temperature;BMP_pressure;BME280_temperature;BME280_humidity;BME280_pressure;Samples;Min_cycle;Max_cycle;Signal;HPM_P1;HPM_P2
2023/12/18 00:01:16;;;;;;;20.10;12.33;;;3.10;23.20;;;;;;5047670;28;20484;-67
2023/12/18 00:03:43;;;;;;;18.93;11.73;;;3.10;23.20;;;;;;5048157;28;20552;-67
2023/12/18 00:06:10;;;;;;;21.20;13.30;;;3.10;23.20;;;;;;5044389;28;20525;-67
2023/12/18 00:08:37;;;;;;;19.03;12.27;;;3.10;23.20;;;;;;5046620;28;20581;-68
2023/12/18 00:11:05;;;;;;;21.70;13.77;;;3.10;23.10;;;;;;5070498;28;20692;-66
2023/12/18 00:13:32;;;;;;;18.20;11.23;;;3.10;23.10;;;;;;5063198;28;20486;-66
2023/12/18 00:15:59;;;;;;;17.87;11.23;;;3.10;23.40;;;;;;5046816;28;20486;-66
2023/12/18 00:18:25;;;;;;;21.47;12.57;;;3.10;23.60;;;;;;5041843;28;20950;-66
2023/12/18 00:20:52;;;;;;;18.93;12.23;;;3.10;23.80;;;;;;5048118;28;20465;-65
2023/12/18 00:23:19;;;;;;;22.10;14.13;;;3.10;23.80;;;;;;5048161;28;20553;-66
2023/12/18 00:25:46;;;;;;;19.70;11.87;;;3.10;23.80;;;;;;5048227;28;20545;-67
2023/12/18 00:28:14;;;;;;;21.13;12.90;;;3.10;23.80;;;;;;5047768;28;20541;-66
2023/12/18 00:30:42;;;;;;;20.83;12.67;;;3.10;24.00;;;;;;5046463;28;20450;-67
2023/12/18 00:33:09;;;;;;;21.10;12.53;;;3.10;23.90;;;;;;5049007;28;20457;-67
2023/12/18 00:35:36;;;;;;;22.00;12.50;;;3.10;23.90;;;;;;5048531;28;20489;-67
2023/12/18 00:38:02;;;;;;;20.57;12.17;;;3.10;24.10;;;;;;5049856;28;20545;-66
2023/12/18 00:40:29;;;;;;;22.87;14.17;;;3.10;24.10;;;;;;5046158;28;20489;-67
2023/12/18 00:42:56;;;;;;;23.33;13.53;;;3.20;23.80;;;;;;5044857;28;20468;-66
2023/12/18 00:45:24;;;;;;;22.40;12.87;;;3.10;24.10;;;;;;5047070;28;20451;-66
2023/12/18 00:47:52;;;;;;;19.83;13.00;;;3.10;24.00;;;;;;5048691;28;20476;-66
2023/12/18 00:50:19;;;;;;;20.60;12.17;;;3.10;24.00;;;;;;5047888;28;20488;-67
2023/12/18 00:52:46;;;;;;;21.10;13.40;;;3.20;24.10;;;;;;5047328;28;20579;-66
2023/12/18 00:55:13;;;;;;;19.17;12.40;;;3.20;23.80;;;;;;5049481;28;20470;-66
2023/12/18 00:57:40;;;;;;;21.23;13.03;;;3.10;23.80;;;;;;5047819;28;20891;-66
2023/12/18 01:00:08;;;;;;;20.73;12.93;;;3.10;23.90;;;;;;5046357;28;20466;-66
2023/12/18 01:02:36;;;;;;;20.43;11.63;;;3.10;23.80;;;;;;5045576;28;20480;-66
2023/12/18 01:05:03;;;;;;;21.30;12.00;;;3.10;23.70;;;;;;5044899;28;20465;-66
2023/12/18 01:07:30;;;;;;;23.30;13.97;;;3.10;23.70;;;;;;5048501;28;20958;-66
2023/12/18 01:09:58;;;;;;;19.50;11.70;;;3.00;23.50;;;;;;5047605;28;20482;-66
2023/12/18 01:12:25;;;;;;;20.90;12.93;;;3.00;23.60;;;;;;5045207;28;20458;-67
2023/12/18 01:14:52;;;;;;;19.97;11.97;;;3.00;23.70;;;;;;5047517;28;20800;-66
2023/12/18 01:17:19;;;;;;;21.50;12.87;;;3.00;23.70;;;;;;5049550;28;21092;-67
2023/12/18 01:19:47;;;;;;;18.33;12.23;;;3.00;23.80;;;;;;5046361;28;21096;-67
2023/12/18 01:22:14;;;;;;;18.20;11.13;;;3.00;23.70;;;;;;5046845;28;20466;-67
2023/12/18 01:24:41;;;;;;;21.70;12.20;;;3.00;23.90;;;;;;5047591;28;20565;-67
2023/12/18 01:27:07;;;;;;;21.23;13.30;;;3.00;23.90;;;;;;5049395;28;20456;-67
2023/12/18 01:29:34;;;;;;;21.13;12.00;;;3.00;23.90;;;;;;5048021;28;20482;-67
2023/12/18 01:32:01;;;;;;;19.20;12.20;;;3.00;23.90;;;;;;5046834;28;20488;-67
2023/12/18 01:34:28;;;;;;;22.10;13.23;;;3.00;23.90;;;;;;5045722;28;20738;-67
2023/12/18 01:36:56;;;;;;;17.97;11.30;;;3.00;24.00;;;;;;5048063;28;20481;-67
2023/12/18 01:39:23;;;;;;;21.30;12.40;;;3.00;23.90;;;;;;5049420;28;20505;-66
2023/12/18 01:41:50;;;;;;;21.40;12.93;;;2.90;23.90;;;;;;5048365;28;20480;-67
2023/12/18 01:44:17;;;;;;;22.47;13.67;;;2.90;23.90;;;;;;5047778;28;20529;-67
2023/12/18 01:46:46;;;;;;;21.17;12.20;;;2.90;24.00;;;;;;5048851;28;20454;-67
2023/12/18 01:49:13;;;;;;;21.00;12.13;;;2.90;24.00;;;;;;5043960;28;21062;-67
2023/12/18 01:51:40;;;;;;;22.13;12.70;;;2.90;23.90;;;;;;5046909;28;20470;-67
2023/12/18 01:54:09;;;;;;;19.13;11.37;;;2.90;23.90;;;;;;5050220;28;20946;-67
2023/12/18 01:56:36;;;;;;;21.10;12.03;;;2.90;24.10;;;;;;5055809;28;20486;-67
2023/12/18 01:59:05;;;;;;;20.60;11.83;;;2.90;24.20;;;;;;5047274;28;20488;-67
2023/12/18 02:01:33;;;;;;;21.53;13.00;;;2.90;24.10;;;;;;5047731;28;21087;-67
2023/12/18 02:04:00;;;;;;;21.27;12.73;;;2.90;24.00;;;;;;5050745;28;20464;-67
2023/12/18 02:06:27;;;;;;;22.17;13.20;;;2.90;24.10;;;;;;5050683;28;20469;-67
2023/12/18 02:08:55;;;;;;;22.93;13.63;;;2.90;24.10;;;;;;5050559;28;20486;-67
2023/12/18 02:11:24;;;;;;;19.77;12.33;;;2.80;24.10;;;;;;5053824;28;20480;-67
2023/12/18 02:13:51;;;;;;;22.07;13.80;;;2.80;24.30;;;;;;5052278;28;20828;-67
2023/12/18 02:16:18;;;;;;;20.23;12.33;;;2.80;24.30;;;;;;5052722;28;20484;-67
2023/12/18 02:18:46;;;;;;;20.07;12.27;;;2.80;24.30;;;;;;5046090;28;21022;-67
2023/12/18 02:21:18;;;;;;;19.83;11.77;;;2.80;24.10;;;;;;5048240;28;20461;-66
2023/12/18 02:23:46;;;;;;;23.17;13.00;;;2.80;24.20;;;;;;5051793;28;20828;-66
2023/12/18 02:26:15;;;;;;;20.73;12.67;;;2.80;24.40;;;;;;5046447;28;20450;-66
2023/12/18 02:28:42;;;;;;;25.87;14.57;;;2.80;24.40;;;;;;5048338;28;20492;-66
2023/12/18 02:31:13;;;;;;;20.00;12.50;;;2.80;24.40;;;;;;5049558;28;20470;-67
2023/12/18 02:33:40;;;;;;;18.97;11.97;;;2.80;24.40;;;;;;5047650;28;20476;-66
2023/12/18 02:36:08;;;;;;;21.90;13.03;;;2.80;24.30;;;;;;5050966;28;20490;-66
2023/12/18 02:38:35;;;;;;;21.93;13.20;;;2.80;24.40;;;;;;5044717;28;20497;-66
2023/12/18 02:41:03;;;;;;;22.97;13.23;;;2.80;24.60;;;;;;5049366;28;20561;-66
2023/12/18 02:43:30;;;;;;;21.67;12.17;;;2.80;24.60;;;;;;5044875;28;20552;-66
2023/12/18 02:45:57;;;;;;;22.80;13.97;;;2.80;24.70;;;;;;5048504;28;20462;-66
2023/12/18 02:48:24;;;;;;;22.00;12.93;;;2.80;24.50;;;;;;5051780;28;20541;-66
2023/12/18 02:50:50;;;;;;;23.30;13.13;;;2.80;24.50;;;;;;5049978;28;20523;-65
2023/12/18 02:53:17;;;;;;;22.00;12.73;;;2.80;24.50;;;;;;5052198;28;20553;-66
2023/12/18 02:55:44;;;;;;;27.93;15.77;;;2.80;24.60;;;;;;5048848;28;20465;-66
2023/12/18 02:58:13;;;;;;;21.80;12.93;;;2.80;24.70;;;;;;5051091;28;20540;-66
2023/12/18 03:00:39;;;;;;;20.70;11.80;;;2.80;24.70;;;;;;5047771;28;20470;-66
2023/12/18 03:03:06;;;;;;;26.27;14.20;;;2.70;24.70;;;;;;5048202;28;20561;-66
2023/12/18 03:05:33;;;;;;;21.50;13.10;;;2.70;24.80;;;;;;5051113;28;20460;-67
2023/12/18 03:08:00;;;;;;;25.23;14.60;;;2.70;24.80;;;;;;5058743;28;20525;-66
2023/12/18 03:10:27;;;;;;;23.07;12.93;;;2.70;24.80;;;;;;5074219;28;20505;-66
2023/12/18 03:12:54;;;;;;;24.73;13.40;;;2.70;24.80;;;;;;5057008;28;20580;-67
2023/12/18 03:15:22;;;;;;;24.00;13.80;;;2.70;24.90;;;;;;5049005;28;21046;-66
2023/12/18 03:17:49;;;;;;;24.10;13.80;;;2.70;25.00;;;;;;5048498;28;20573;-67
2023/12/18 03:20:16;;;;;;;20.07;12.10;;;2.70;24.90;;;;;;5048439;28;20858;-67
2023/12/18 03:22:43;;;;;;;20.90;12.70;;;2.70;24.90;;;;;;5052873;28;20533;-67
2023/12/18 03:25:10;;;;;;;20.30;12.37;;;2.70;25.00;;;;;;5050273;28;20509;-69
2023/12/18 03:27:37;;;;;;;20.90;12.90;;;2.70;25.00;;;;;;5049189;28;20480;-65
2023/12/18 03:30:05;;;;;;;22.20;13.37;;;2.70;25.00;;;;;;5047506;28;20478;-68
2023/12/18 03:32:33;;;;;;;20.13;12.43;;;2.70;25.10;;;;;;5045304;28;20502;-66
2023/12/18 03:35:00;;;;;;;22.63;13.47;;;2.70;25.20;;;;;;5047227;28;20553;-66
2023/12/18 03:37:27;;;;;;;22.70;13.00;;;2.70;25.10;;;;;;5053880;28;20996;-65
2023/12/18 03:39:53;;;;;;;19.90;12.17;;;2.70;25.30;;;;;;5046935;28;20474;-66
2023/12/18 03:42:20;;;;;;;23.07;14.10;;;2.70;25.20;;;;;;5047454;28;20477;-68
2023/12/18 03:44:47;;;;;;;19.63;11.60;;;2.70;25.00;;;;;;5046410;28;20992;-66
2023/12/18 03:47:14;;;;;;;17.87;10.97;;;2.80;24.90;;;;;;5052598;28;20465;-66
2023/12/18 03:49:42;;;;;;;18.90;12.00;;;2.70;25.00;;;;;;5047996;28;20577;-67
2023/12/18 03:52:09;;;;;;;20.13;13.93;;;2.70;25.00;;;;;;5048165;28;20874;-67
2023/12/18 03:54:36;;;;;;;20.50;11.70;;;2.70;24.90;;;;;;5049786;28;20458;-66
2023/12/18 03:57:03;;;;;;;20.30;13.13;;;2.70;24.80;;;;;;5049045;28;20481;-66
2023/12/18 03:59:30;;;;;;;20.97;13.10;;;2.70;24.90;;;;;;5049042;28;20572;-66
2023/12/18 04:01:57;;;;;;;18.30;12.60;;;2.70;25.00;;;;;;5047531;28;20929;-66
2023/12/18 04:04:24;;;;;;;18.43;12.30;;;2.70;25.00;;;;;;5050029;28;20476;-66
2023/12/18 04:06:51;;;;;;;19.97;12.20;;;2.70;25.00;;;;;;5049157;28;20465;-67
2023/12/18 04:09:18;;;;;;;18.97;11.80;;;2.70;25.00;;;;;;5046183;28;20896;-66
2023/12/18 04:11:44;;;;;;;18.53;11.20;;;2.70;25.10;;;;;;5048136;28;20461;-66
2023/12/18 04:14:11;;;;;;;21.20;12.70;;;2.70;25.20;;;;;;5052203;28;20480;-66
2023/12/18 04:16:38;;;;;;;19.43;11.60;;;2.70;25.00;;;;;;5046708;28;20484;-67
2023/12/18 04:19:05;;;;;;;20.93;12.70;;;2.70;25.00;;;;;;5046642;28;20542;-66
2023/12/18 04:21:32;;;;;;;19.17;12.27;;;2.70;25.10;;;;;;5047320;28;20941;-66
2023/12/18 04:24:01;;;;;;;18.37;11.23;;;2.70;25.00;;;;;;5045386;28;20909;-66
2023/12/18 04:26:28;;;;;;;16.90;10.47;;;2.70;25.00;;;;;;5042888;28;20454;-66
2023/12/18 04:28:55;;;;;;;19.80;12.80;;;2.70;25.00;;;;;;5050799;28;20505;-67
2023/12/18 04:31:22;;;;;;;18.57;11.17;;;2.70;24.80;;;;;;5037621;28;20462;-67
2023/12/18 04:33:49;;;;;;;18.00;11.47;;;2.70;24.90;;;;;;5048722;28;20560;-66
2023/12/18 04:36:16;;;;;;;17.87;11.43;;;2.60;24.70;;;;;;5027860;28;20970;-67
2023/12/18 04:38:45;;;;;;;18.73;11.40;;;2.60;24.60;;;;;;5045498;28;20568;-67
2023/12/18 04:41:19;;;;;;;18.00;11.83;;;2.60;24.80;;;;;;5043493;28;20470;-67
2023/12/18 04:43:46;;;;;;;20.80;12.33;;;2.60;25.00;;;;;;5044315;28;20472;-66
2023/12/18 04:46:13;;;;;;;19.83;12.27;;;2.60;25.20;;;;;;5043504;28;20458;-67
2023/12/18 04:48:40;;;;;;;18.87;11.83;;;2.60;25.30;;;;;;5044158;28;20484;-66
2023/12/18 04:51:07;;;;;;;19.87;12.53;;;2.60;25.30;;;;;;5044939;28;20533;-67
2023/12/18 04:53:34;;;;;;;21.57;12.70;;;2.50;25.20;;;;;;5045942;28;20462;-67
2023/12/18 04:56:01;;;;;;;19.17;11.03;;;2.50;25.30;;;;;;5045503;28;20808;-66
2023/12/18 04:58:30;;;;;;;21.53;12.37;;;2.50;25.50;;;;;;5039737;28;21106;-66
2023/12/18 05:00:57;;;;;;;23.17;13.03;;;2.50;25.60;;;;;;5046088;28;20686;-66
2023/12/18 05:03:24;;;;;;;23.67;14.27;;;2.50;25.70;;;;;;5045864;28;20454;-66
2023/12/18 05:05:51;;;;;;;22.97;12.67;;;2.50;25.80;;;;;;5046958;28;20458;-66
2023/12/18 05:08:18;;;;;;;19.97;12.40;;;2.50;25.60;;;;;;5048610;28;20553;-66
2023/12/18 05:10:45;;;;;;;20.07;12.57;;;2.50;25.80;;;;;;5047078;28;20541;-67
2023/12/18 05:13:12;;;;;;;21.90;12.67;;;2.50;25.80;;;;;;5046743;28;20537;-66
2023/12/18 05:15:40;;;;;;;21.47;12.20;;;2.50;25.80;;;;;;5041706;28;20466;-66
2023/12/18 05:18:07;;;;;;;18.00;10.87;;;2.50;25.50;;;;;;5043200;28;20602;-66
2023/12/18 05:20:34;;;;;;;15.87;10.17;;;2.50;25.70;;;;;;5045516;28;20486;-66
2023/12/18 05:23:01;;;;;;;19.23;11.47;;;2.50;25.80;;;;;;5045632;28;21064;-66
2023/12/18 05:25:28;;;;;;;18.50;11.30;;;2.50;25.70;;;;;;5049063;28;20458;-66
2023/12/18 05:27:55;;;;;;;19.87;10.77;;;2.50;25.70;;;;;;5045165;28;21002;-66
2023/12/18 05:30:22;;;;;;;21.67;13.40;;;2.50;25.80;;;;;;5042502;28;20566;-66
2023/12/18 05:32:50;;;;;;;19.10;11.87;;;2.50;26.00;;;;;;5045403;28;20462;-66
2023/12/18 05:35:17;;;;;;;20.17;12.70;;;2.50;26.20;;;;;;5045166;28;20465;-66
2023/12/18 05:37:44;;;;;;;24.70;13.93;;;2.50;26.50;;;;;;5045820;28;20501;-66
2023/12/18 05:40:12;;;;;;;19.30;11.80;;;2.50;26.80;;;;;;5041308;28;20498;-69
2023/12/18 05:42:39;;;;;;;18.73;10.80;;;2.50;26.80;;;;;;5048997;28;20551;-68
2023/12/18 05:45:07;;;;;;;20.90;11.47;;;2.50;26.70;;;;;;5044422;28;20471;-67
2023/12/18 05:47:34;;;;;;;19.40;11.40;;;2.50;26.40;;;;;;5045679;28;20964;-67
2023/12/18 05:50:02;;;;;;;20.57;11.57;;;2.50;26.20;;;;;;5045861;28;20571;-67
2023/12/18 05:52:29;;;;;;;17.67;10.17;;;2.50;26.20;;;;;;5048851;28;21018;-68
2023/12/18 05:54:56;;;;;;;17.97;10.73;;;2.50;26.10;;;;;;5041643;28;20470;-67
2023/12/18 05:57:23;;;;;;;19.60;11.80;;;2.50;25.90;;;;;;5049335;28;20480;-67
2023/12/18 05:59:50;;;;;;;17.20;9.60;;;2.50;26.00;;;;;;5043413;28;20555;-67
2023/12/18 06:02:17;;;;;;;20.77;11.23;;;2.50;26.10;;;;;;5045711;28;20472;-68
2023/12/18 06:04:44;;;;;;;18.83;11.17;;;2.40;26.20;;;;;;5043025;28;20840;-68
2023/12/18 06:07:12;;;;;;;23.27;12.73;;;2.40;26.30;;;;;;5063877;28;20466;-68
2023/12/18 06:09:39;;;;;;;18.33;10.70;;;2.40;26.30;;;;;;5063902;28;20990;-67
2023/12/18 06:12:06;;;;;;;18.43;11.20;;;2.40;26.40;;;;;;5043977;28;20973;-68
2023/12/18 06:14:33;;;;;;;22.23;12.40;;;2.40;26.50;;;;;;5045072;28;20472;-69
2023/12/18 06:17:00;;;;;;;22.73;12.63;;;2.40;26.40;;;;;;5045755;28;20484;-68
2023/12/18 06:19:27;;;;;;;24.73;13.23;;;2.40;26.50;;;;;;5042037;28;21000;-69
2023/12/18 06:21:54;;;;;;;23.33;12.80;;;2.40;26.60;;;;;;5046894;28;20458;-67
2023/12/18 06:24:23;;;;;;;20.03;12.17;;;2.40;26.80;;;;;;5045280;28;20468;-67
2023/12/18 06:26:49;;;;;;;22.77;12.70;;;2.40;26.80;;;;;;5044371;28;21011;-67
2023/12/18 06:29:16;;;;;;;21.17;11.20;;;2.40;26.70;;;;;;5045892;28;20524;-68
2023/12/18 06:31:43;;;;;;;23.17;12.87;;;2.40;26.80;;;;;;5041739;28;20474;-67
2023/12/18 06:34:11;;;;;;;20.23;12.23;;;2.50;26.80;;;;;;5045821;28;20641;-67
2023/12/18 06:36:38;;;;;;;20.67;12.27;;;2.50;27.10;;;;;;5045103;28;20520;-67
2023/12/18 06:39:05;;;;;;;22.73;13.67;;;2.50;27.00;;;;;;5046890;28;20573;-67
2023/12/18 06:41:33;;;;;;;20.43;12.03;;;2.50;27.00;;;;;;5050582;28;20467;-67
2023/12/18 06:44:00;;;;;;;21.67;13.57;;;2.50;26.90;;;;;;5045525;28;20472;-67
2023/12/18 06:46:26;;;;;;;21.50;12.77;;;2.50;27.00;;;;;;5049880;28;20936;-67
2023/12/18 06:48:53;;;;;;;20.20;11.90;;;2.50;27.00;;;;;;5048227;28;20469;-68
2023/12/18 06:51:20;;;;;;;18.60;12.10;;;2.50;26.80;;;;;;5048622;28;20574;-67
2023/12/18 06:53:47;;;;;;;20.87;11.80;;;2.50;26.80;;;;;;5046298;28;20564;-68
2023/12/18 06:56:14;;;;;;;21.63;12.30;;;2.50;26.80;;;;;;5050234;28;20461;-67
2023/12/18 06:58:42;;;;;;;22.80;12.63;;;2.40;26.80;;;;;;5050357;28;20584;-68
2023/12/18 07:01:09;;;;;;;22.03;11.10;;;2.40;26.90;;;;;;5048873;28;20554;-68
2023/12/18 07:03:37;;;;;;;24.63;13.63;;;2.40;27.00;;;;;;5047481;28;21629;-67
2023/12/18 07:06:04;;;;;;;22.83;13.90;;;2.40;27.00;;;;;;5048683;28;20467;-68
2023/12/18 07:08:31;;;;;;;23.33;13.47;;;2.40;27.00;;;;;;5051717;28;20560;-67
2023/12/18 07:10:58;;;;;;;21.80;12.07;;;2.40;27.10;;;;;;5049758;28;20541;-67
2023/12/18 07:13:25;;;;;;;21.87;12.27;;;2.40;27.00;;;;;;5048808;28;20458;-67
2023/12/18 07:15:53;;;;;;;17.50;10.80;;;2.40;27.00;;;;;;5048669;28;20545;-67
2023/12/18 07:18:20;;;;;;;24.90;13.90;;;2.40;27.00;;;;;;5048475;28;20577;-66
2023/12/18 07:20:47;;;;;;;17.93;10.73;;;2.40;26.90;;;;;;5049627;28;20450;-67
2023/12/18 07:23:14;;;;;;;20.50;11.87;;;2.40;26.80;;;;;;5050906;28;20588;-67
2023/12/18 07:25:41;;;;;;;21.97;12.43;;;2.40;26.70;;;;;;5049808;28;20533;-67
2023/12/18 07:28:09;;;;;;;19.07;10.53;;;2.40;26.70;;;;;;5046799;28;20918;-67
2023/12/18 07:30:36;;;;;;;22.10;12.67;;;2.40;27.40;;;;;;5026179;23;20471;-67
2023/12/18 07:33:06;;;;;;;16.90;10.27;;;2.40;26.60;;;;;;5008533;28;20471;-67
2023/12/18 07:35:33;;;;;;;24.23;12.67;;;2.40;26.70;;;;;;5006994;28;20476;-69
2023/12/18 07:38:00;;;;;;;18.67;11.00;;;2.40;26.80;;;;;;5004040;28;20484;-68
2023/12/18 07:40:26;;;;;;;22.03;10.90;;;2.40;26.70;;;;;;5008890;28;21068;-68
2023/12/18 07:42:53;;;;;;;18.40;10.50;;;2.40;27.00;;;;;;5004082;28;20474;-68
2023/12/18 07:45:20;;;;;;;20.50;11.43;;;2.40;26.80;;;;;;5007383;28;20473;-68
2023/12/18 07:47:47;;;;;;;21.23;12.10;;;2.40;27.20;;;;;;5006279;28;20456;-68
2023/12/18 07:50:16;;;;;;;23.47;11.43;;;2.40;27.30;;;;;;5008703;28;20562;-68
2023/12/18 07:52:44;;;;;;;23.00;11.53;;;2.50;27.40;;;;;;5007060;28;20579;-68
2023/12/18 07:55:11;;;;;;;23.33;11.70;;;2.50;27.10;;;;;;5008509;28;20467;-68
2023/12/18 07:57:40;;;;;;;21.90;11.70;;;2.50;27.10;;;;;;5009983;28;20480;-68
2023/12/18 08:00:08;;;;;;;18.80;11.43;;;2.50;27.20;;;;;;5006132;28;20487;-68
2023/12/18 08:02:35;;;;;;;20.40;11.80;;;2.60;27.00;;;;;;5007538;28;20817;-68
2023/12/18 08:05:02;;;;;;;22.33;12.20;;;2.60;27.50;;;;;;5005716;28;20878;-67
2023/12/18 08:07:31;;;;;;;18.47;10.67;;;2.60;26.50;;;;;;5009509;28;20532;-68
2023/12/18 08:09:58;;;;;;;19.87;10.07;;;2.70;26.40;;;;;;5004970;28;21065;-68
2023/12/18 08:12:25;;;;;;;21.53;11.17;;;2.70;26.40;;;;;;5006955;28;20922;-68
2023/12/18 08:14:52;;;;;;;21.27;12.97;;;2.80;26.40;;;;;;5010626;28;21129;-67
2023/12/18 08:17:19;;;;;;;20.97;10.87;;;2.80;26.40;;;;;;5000325;28;20468;-67
2023/12/18 08:19:47;;;;;;;18.97;11.07;;;2.90;26.10;;;;;;5011281;28;20572;-67
2023/12/18 08:22:14;;;;;;;18.20;9.87;;;2.90;25.80;;;;;;5011701;28;20472;-68
2023/12/18 08:24:43;;;;;;;25.30;11.83;;;3.00;25.70;;;;;;5010833;28;20556;-67
2023/12/18 08:27:09;;;;;;;18.70;10.47;;;3.00;25.30;;;;;;5006469;28;20562;-67
2023/12/18 08:29:39;;;;;;;17.60;10.47;;;3.10;25.30;;;;;;5008053;28;20489;-67
2023/12/18 08:32:07;;;;;;;17.90;10.00;;;3.10;25.00;;;;;;5002849;28;20477;-67
2023/12/18 08:34:33;;;;;;;18.80;10.97;;;3.10;24.70;;;;;;5007775;28;20978;-67
2023/12/18 08:37:00;;;;;;;18.70;10.13;;;3.10;24.60;;;;;;5007825;28;20463;-68
2023/12/18 08:39:27;;;;;;;24.63;13.60;;;3.20;24.60;;;;;;5007132;28;20480;-66
2023/12/18 08:41:55;;;;;;;20.80;11.10;;;3.20;24.60;;;;;;5005544;28;20876;-65
2023/12/18 08:44:22;;;;;;;18.20;10.83;;;3.20;24.60;;;;;;5006729;28;20459;-69
2023/12/18 08:46:49;;;;;;;22.07;10.70;;;3.30;24.20;;;;;;5003549;28;20554;-69
2023/12/18 08:49:16;;;;;;;17.83;9.50;;;3.40;23.90;;;;;;5005495;28;20487;-69
2023/12/18 08:51:43;;;;;;;18.93;11.23;;;3.40;23.50;;;;;;5005946;28;20459;-69
2023/12/18 08:54:10;;;;;;;18.10;10.20;;;3.50;23.50;;;;;;5004333;28;20463;-69
2023/12/18 08:56:37;;;;;;;18.53;10.43;;;3.50;23.10;;;;;;5004744;28;20562;-69
2023/12/18 08:59:05;;;;;;;17.27;10.40;;;3.60;23.10;;;;;;5006363;28;20911;-68
2023/12/18 09:01:36;;;;;;;18.30;10.80;;;3.70;23.00;;;;;;5002412;28;20947;-69
2023/12/18 09:04:03;;;;;;;17.13;10.47;;;3.80;22.70;;;;;;5006765;28;21251;-68
2023/12/18 09:06:31;;;;;;;17.53;9.80;;;4.00;22.50;;;;;;5005020;28;20464;-69
2023/12/18 09:08:57;;;;;;;19.47;12.30;;;4.10;22.20;;;;;;5001034;28;20476;-69
2023/12/18 09:11:25;;;;;;;19.30;10.53;;;4.30;21.60;;;;;;5005998;28;20473;-73
2023/12/18 09:13:52;;;;;;;18.17;11.27;;;4.60;21.60;;;;;;5005867;28;20466;-72
2023/12/18 09:16:20;;;;;;;22.23;10.27;;;5.00;20.50;;;;;;5010332;28;20558;-73
2023/12/18 09:18:47;;;;;;;16.17;9.87;;;5.40;20.00;;;;;;5009462;28;20483;-68
2023/12/18 09:21:14;;;;;;;15.90;10.30;;;5.90;19.00;;;;;;5006885;28;20463;-68
2023/12/18 09:23:41;;;;;;;15.97;9.03;;;6.30;17.70;;;;;;5001097;28;20474;-68
2023/12/18 09:26:08;;;;;;;19.00;11.10;;;6.70;16.30;;;;;;5005375;28;20460;-69
2023/12/18 09:28:35;;;;;;;19.90;9.80;;;7.00;16.00;;;;;;5004963;28;20480;-68
2023/12/18 09:31:02;;;;;;;16.37;9.73;;;7.10;15.30;;;;;;5003817;28;20455;-68
2023/12/18 09:33:30;;;;;;;15.67;8.80;;;7.10;14.40;;;;;;5003000;28;20474;-69
2023/12/18 09:35:57;;;;;;;15.37;9.00;;;7.10;13.90;;;;;;5007584;28;20462;-68
2023/12/18 09:38:24;;;;;;;18.80;11.37;;;7.10;13.50;;;;;;5010352;28;21052;-68
2023/12/18 09:40:51;;;;;;;16.30;9.60;;;7.20;13.40;;;;;;5006375;28;20558;-68
2023/12/18 09:43:18;;;;;;;16.77;9.10;;;7.20;13.40;;;;;;5000839;28;20464;-68
2023/12/18 09:45:46;;;;;;;16.60;8.80;;;7.50;13.20;;;;;;5006042;28;20547;-68
2023/12/18 09:48:13;;;;;;;17.63;9.63;;;7.90;12.70;;;;;;5009360;28;20455;-69
2023/12/18 09:50:41;;;;;;;16.70;9.93;;;8.20;11.80;;;;;;5010108;28;20816;-68
2023/12/18 09:53:10;;;;;;;14.20;9.90;;;8.40;11.10;;;;;;5008735;28;20456;-68
2023/12/18 09:55:37;;;;;;;14.13;9.07;;;8.40;10.20;;;;;;5009767;28;20987;-68
2023/12/18 09:58:05;;;;;;;17.33;8.97;;;8.40;10.30;;;;;;5011434;28;20480;-68
2023/12/18 10:00:32;;;;;;;14.97;9.80;;;8.50;10.20;;;;;;5003588;28;20594;-68
2023/12/18 10:03:00;;;;;;;16.83;9.57;;;8.60;9.80;;;;;;5008164;28;20467;-68
2023/12/18 10:05:27;;;;;;;15.13;10.63;;;8.50;9.70;;;;;;5007338;28;20571;-68
2023/12/18 10:07:59;;;;;;;15.93;9.50;;;8.60;9.90;;;;;;5011127;28;20456;-68
2023/12/18 10:10:26;;;;;;;16.00;9.03;;;8.70;10.10;;;;;;5006500;28;21238;-68
2023/12/18 10:12:54;;;;;;;14.27;9.60;;;8.90;10.30;;;;;;5010308;28;20459;-69
2023/12/18 10:15:21;;;;;;;15.57;10.03;;;9.00;9.30;;;;;;5014225;28;20456;-68
2023/12/18 10:17:48;;;;;;;15.03;10.37;;;9.10;9.30;;;;;;5008265;28;20459;-68
2023/12/18 10:20:16;;;;;;;15.10;10.00;;;9.20;8.80;;;;;;5009112;28;20488;-68
2023/12/18 10:22:43;;;;;;;16.80;9.73;;;9.40;8.90;;;;;;5011950;28;20455;-68
2023/12/18 10:25:12;;;;;;;13.30;9.47;;;9.60;8.40;;;;;;5011620;28;20839;-68
2023/12/18 10:27:39;;;;;;;16.40;9.63;;;9.80;8.10;;;;;;5011742;28;21017;-69
2023/12/18 10:30:07;;;;;;;14.93;9.70;;;10.00;7.60;;;;;;5009115;28;20993;-69
2023/12/18 10:32:36;;;;;;;15.20;9.93;;;10.20;7.40;;;;;;5011289;28;20494;-69
2023/12/18 10:35:04;;;;;;;13.90;10.10;;;10.50;6.60;;;;;;5013324;28;20460;-68
2023/12/18 10:37:32;;;;;;;15.73;9.57;;;10.70;6.20;;;;;;5011787;28;20464;-68
2023/12/18 10:40:04;;;;;;;14.00;8.80;;;10.90;6.20;;;;;;5012880;28;20537;-68
2023/12/18 10:42:35;;;;;;;12.40;8.90;;;11.20;6.00;;;;;;5005706;28;20475;-68
2023/12/18 10:45:04;;;;;;;14.83;10.10;;;11.30;5.10;;;;;;5007211;28;21012;-68
2023/12/18 10:47:32;;;;;;;15.13;9.80;;;11.50;4.40;;;;;;5005920;28;20468;-68
2023/12/18 10:50:01;;;;;;;13.40;9.57;;;11.60;3.90;;;;;;5006590;28;20565;-69
2023/12/18 10:52:30;;;;;;;14.13;9.90;;;11.70;3.50;;;;;;5005824;28;20463;-66
2023/12/18 10:54:58;;;;;;;13.23;9.10;;;11.80;3.50;;;;;;5009148;28;20464;-66
2023/12/18 10:57:26;;;;;;;15.13;9.87;;;12.00;3.50;;;;;;5005783;28;20472;-67
2023/12/18 10:59:55;;;;;;;12.00;8.20;;;12.10;3.10;;;;;;5009977;28;21192;-67
2023/12/18 11:02:22;;;;;;;13.30;9.53;;;12.10;2.60;;;;;;5007721;28;20472;-67
2023/12/18 11:04:50;;;;;;;15.50;9.30;;;12.20;2.40;;;;;;5006139;28;20559;-67
2023/12/18 11:07:19;;;;;;;12.17;8.17;;;12.40;2.50;;;;;;5004802;28;20660;-67
2023/12/18 11:09:47;;;;;;;13.50;8.80;;;12.50;2.00;;;;;;5011530;28;20494;-67
2023/12/18 11:12:16;;;;;;;11.67;8.70;;;12.50;2.30;;;;;;5012377;28;20457;-67
2023/12/18 11:14:53;;;;;;;11.43;8.30;;;12.70;2.10;;;;;;5010491;28;20459;-67
2023/12/18 11:17:31;;;;;;;11.90;7.80;;;12.70;1.70;;;;;;5004955;28;20470;-67
2023/12/18 11:20:06;;;;;;;12.03;7.90;;;12.80;1.60;;;;;;5009627;28;20487;-69
2023/12/18 11:22:41;;;;;;;15.87;9.80;;;12.90;1.00;;;;;;5009797;28;21010;-67
2023/12/18 11:25:09;;;;;;;10.90;7.90;;;13.10;1.00;;;;;;5004055;28;20456;-67
2023/12/18 11:27:37;;;;;;;12.73;8.80;;;13.30;1.00;;;;;;5008958;28;20451;-68
2023/12/18 11:30:06;;;;;;;10.77;8.10;;;13.60;1.00;;;;;;5009518;28;20539;-68
2023/12/18 11:32:45;;;;;;;10.70;7.87;;;13.90;1.00;;;;;;5006003;28;20865;-68
2023/12/18 11:35:13;;;;;;;12.37;9.10;;;14.20;1.00;;;;;;5007451;28;20460;-67
2023/12/18 11:37:46;;;;;;;10.97;7.40;;;14.60;1.00;;;;;;5008007;28;20457;-68
2023/12/18 11:40:36;;;;;;;11.20;7.63;;;14.90;1.00;;;;;;5006778;28;20492;-67
2023/12/18 11:43:04;;;;;;;11.03;8.23;;;15.40;1.00;;;;;;5005577;28;20971;-67
2023/12/18 11:45:31;;;;;;;11.97;8.77;;;15.80;1.00;;;;;;5007142;28;20555;-68
2023/12/18 11:48:02;;;;;;;12.07;8.70;;;16.10;1.00;;;;;;5010162;28;20543;-67
2023/12/18 11:50:32;;;;;;;10.17;7.20;;;16.40;1.00;;;;;;5006770;28;20488;-67
2023/12/18 11:53:00;;;;;;;11.23;7.70;;;16.60;1.00;;;;;;5006570;28;20469;-67
2023/12/18 11:55:44;;;;;;;11.60;6.87;;;16.90;1.00;;;;;;5007850;28;20456;-68
2023/12/18 11:58:10;;;;;;;10.30;6.73;;;17.10;1.00;;;;;;5006638;28;21007;-68
2023/12/18 12:00:39;;;;;;;10.83;7.77;;;17.30;1.00;;;;;;4996616;28;20468;-68
2023/12/18 12:03:08;;;;;;;11.80;9.13;;;17.50;1.00;;;;;;5006224;28;20551;-68
2023/12/18 12:05:37;;;;;;;10.50;7.80;;;17.60;1.00;;;;;;5005626;28;20945;-68
2023/12/18 12:08:05;;;;;;;13.20;8.23;;;17.60;1.00;;;;;;5007600;28;21002;-68
2023/12/18 12:10:39;;;;;;;11.00;7.70;;;17.70;1.00;;;;;;5005829;28;20469;-67
2023/12/18 12:13:06;;;;;;;9.60;6.83;;;17.50;1.00;;;;;;5008548;28;20455;-67
2023/12/18 12:15:33;;;;;;;10.03;6.83;;;17.40;1.00;;;;;;5007653;28;20482;-68
2023/12/18 12:18:03;;;;;;;8.83;7.10;;;17.30;1.00;;;;;;5005456;28;20463;-68
2023/12/18 12:20:31;;;;;;;11.13;7.97;;;17.00;1.00;;;;;;5002803;28;20484;-68
2023/12/18 12:22:58;;;;;;;12.67;7.87;;;16.80;1.00;;;;;;5006505;28;20459;-67
2023/12/18 12:25:25;;;;;;;9.67;7.40;;;16.60;1.00;;;;;;5000949;28;20476;-68
2023/12/18 12:27:52;;;;;;;10.10;7.50;;;16.40;1.00;;;;;;5008527;28;20461;-68
2023/12/18 12:30:21;;;;;;;10.00;7.80;;;16.20;1.00;;;;;;5005219;28;20498;-68
2023/12/18 12:32:48;;;;;;;10.03;7.43;;;15.90;1.00;;;;;;5008216;28;20460;-68
2023/12/18 12:35:17;;;;;;;10.80;7.60;;;15.70;1.00;;;;;;5006939;28;20466;-68
2023/12/18 12:37:46;;;;;;;11.83;7.80;;;15.50;1.00;;;;;;5006062;28;20451;-69
2023/12/18 12:40:13;;;;;;;10.90;7.80;;;15.30;1.00;;;;;;5007077;28;20483;-68
2023/12/18 12:42:42;;;;;;;9.10;6.80;;;15.10;1.00;;;;;;5006695;28;20466;-68